sensor_id;sensor_type;location;lat;lon;timestamp;P1;durP1;ratioP1;P2;durP2;ratioP2
49384;SDS011;36795;45.028;38.968;2022-07-29T00:00:42;23.42;;;10.25;;
49384;SDS011;36795;45.028;38.968;2022-07-29T00:03:31;21.55;;;8.95;;
49384;SDS011;36795;45.028;38.968;2022-07-29T00:06:18;21.58;;;9.27;;
49384;SDS011;36795;45.028;38.968;2022-07-29T00:09:04;24.55;;;9.50;;
49384;SDS011;36795;45.028;38.968;2022-07-29T00:11:50;20.90;;;9.35;;
49384;SDS011;36795;45.028;38.968;2022-07-29T00:14:37;21.83;;;9.50;;
49384;SDS011;36795;45.028;38.968;2022-07-29T00:17:23;22.23;;;9.68;;
49384;SDS011;36795;45.028;38.968;2022-07-29T00:20:10;21.60;;;9.48;;
49384;SDS011;36795;45.028;38.968;2022-07-29T00:22:56;22.15;;;9.65;;
49384;SDS011;36795;45.028;38.968;2022-07-29T00:25:43;25.45;;;9.65;;
49384;SDS011;36795;45.028;38.968;2022-07-29T00:28:29;22.55;;;9.55;;
49384;SDS011;36795;45.028;38.968;2022-07-29T00:31:15;24.48;;;10.13;;
49384;SDS011;36795;45.028;38.968;2022-07-29T00:34:01;21.75;;;10.00;;
49384;SDS011;36795;45.028;38.968;2022-07-29T00:36:47;21.50;;;9.75;;
49384;SDS011;36795;45.028;38.968;2022-07-29T00:39:34;22.15;;;9.93;;
49384;SDS011;36795;45.028;38.968;2022-07-29T00:42:20;25.65;;;10.00;;
49384;SDS011;36795;45.028;38.968;2022-07-29T00:45:06;23.30;;;10.07;;
49384;SDS011;36795;45.028;38.968;2022-07-29T00:47:52;29.85;;;9.93;;
49384;SDS011;36795;45.028;38.968;2022-07-29T00:50:39;25.77;;;9.80;;
49384;SDS011;36795;45.028;38.968;2022-07-29T00:53:25;24.23;;;9.60;;
49384;SDS011;36795;45.028;38.968;2022-07-29T00:56:12;26.42;;;9.40;;
49384;SDS011;36795;45.028;38.968;2022-07-29T00:58:59;26.62;;;9.50;;
49384;SDS011;36795;45.028;38.968;2022-07-29T01:01:45;26.02;;;9.45;;
49384;SDS011;36795;45.028;38.968;2022-07-29T01:04:31;30.50;;;9.77;;
49384;SDS011;36795;45.028;38.968;2022-07-29T01:07:17;28.05;;;8.77;;
49384;SDS011;36795;45.028;38.968;2022-07-29T01:10:04;29.60;;;9.32;;
49384;SDS011;36795;45.028;38.968;2022-07-29T01:12:52;28.85;;;9.57;;
49384;SDS011;36795;45.028;38.968;2022-07-29T01:15:43;28.15;;;10.13;;
49384;SDS011;36795;45.028;38.968;2022-07-29T01:18:34;25.95;;;9.35;;
49384;SDS011;36795;45.028;38.968;2022-07-29T01:21:33;26.27;;;9.57;;
49384;SDS011;36795;45.028;38.968;2022-07-29T01:24:46;23.20;;;9.50;;
49384;SDS011;36795;45.028;38.968;2022-07-29T01:31:02;25.40;;;9.15;;
49384;SDS011;36795;45.028;38.968;2022-07-29T01:33:52;28.60;;;9.07;;
49384;SDS011;36795;45.028;38.968;2022-07-29T01:36:43;29.52;;;9.38;;
49384;SDS011;36795;45.028;38.968;2022-07-29T01:39:37;22.85;;;9.13;;
49384;SDS011;36795;45.028;38.968;2022-07-29T01:42:39;23.12;;;8.25;;
49384;SDS011;36795;45.028;38.968;2022-07-29T01:45:36;22.92;;;8.93;;
49384;SDS011;36795;45.028;38.968;2022-07-29T01:48:40;26.50;;;9.10;;
49384;SDS011;36795;45.028;38.968;2022-07-29T01:51:44;22.70;;;7.93;;
49384;SDS011;36795;45.028;38.968;2022-07-29T01:54:38;25.83;;;8.73;;
49384;SDS011;36795;45.028;38.968;2022-07-29T01:57:31;29.02;;;8.25;;
49384;SDS011;36795;45.028;38.968;2022-07-29T02:00:18;30.40;;;8.55;;
49384;SDS011;36795;45.028;38.968;2022-07-29T02:03:09;25.08;;;8.50;;
49384;SDS011;36795;45.028;38.968;2022-07-29T02:05:57;25.35;;;8.48;;
49384;SDS011;36795;45.028;38.968;2022-07-29T02:08:45;29.77;;;9.05;;
49384;SDS011;36795;45.028;38.968;2022-07-29T02:11:33;23.87;;;8.93;;
49384;SDS011;36795;45.028;38.968;2022-07-29T02:14:21;30.15;;;8.98;;
49384;SDS011;36795;45.028;38.968;2022-07-29T02:17:08;26.12;;;8.73;;
49384;SDS011;36795;45.028;38.968;2022-07-29T02:19:57;29.08;;;9.32;;
49384;SDS011;36795;45.028;38.968;2022-07-29T02:22:44;26.00;;;9.27;;
49384;SDS011;36795;45.028;38.968;2022-07-29T02:25:34;24.45;;;8.82;;
49384;SDS011;36795;45.028;38.968;2022-07-29T02:28:22;26.42;;;8.85;;
49384;SDS011;36795;45.028;38.968;2022-07-29T02:31:10;28.65;;;9.27;;
49384;SDS011;36795;45.028;38.968;2022-07-29T02:33:58;29.95;;;8.77;;
49384;SDS011;36795;45.028;38.968;2022-07-29T02:36:48;28.08;;;9.10;;
49384;SDS011;36795;45.028;38.968;2022-07-29T02:39:35;24.52;;;8.82;;
49384;SDS011;36795;45.028;38.968;2022-07-29T02:42:24;26.77;;;9.63;;
49384;SDS011;36795;45.028;38.968;2022-07-29T02:45:12;25.02;;;9.00;;
49384;SDS011;36795;45.028;38.968;2022-07-29T02:47:59;23.58;;;9.82;;
49384;SDS011;36795;45.028;38.968;2022-07-29T02:51:05;25.92;;;9.20;;
49384;SDS011;36795;45.028;38.968;2022-07-29T02:53:57;27.35;;;10.02;;
49384;SDS011;36795;45.028;38.968;2022-07-29T02:56:46;28.77;;;10.77;;
49384;SDS011;36795;45.028;38.968;2022-07-29T02:59:35;31.55;;;10.23;;
49384;SDS011;36795;45.028;38.968;2022-07-29T03:02:25;24.98;;;9.73;;
49384;SDS011;36795;45.028;38.968;2022-07-29T03:05:15;25.98;;;10.25;;
49384;SDS011;36795;45.028;38.968;2022-07-29T03:08:04;31.62;;;11.23;;
49384;SDS011;36795;45.028;38.968;2022-07-29T03:10:53;27.65;;;11.10;;
49384;SDS011;36795;45.028;38.968;2022-07-29T03:13:41;30.42;;;11.38;;
49384;SDS011;36795;45.028;38.968;2022-07-29T03:16:27;29.25;;;11.68;;
49384;SDS011;36795;45.028;38.968;2022-07-29T03:19:14;28.02;;;13.20;;
49384;SDS011;36795;45.028;38.968;2022-07-29T03:22:00;25.77;;;11.70;;
49384;SDS011;36795;45.028;38.968;2022-07-29T03:24:47;29.67;;;11.75;;
49384;SDS011;36795;45.028;38.968;2022-07-29T03:27:33;27.52;;;11.98;;
49384;SDS011;36795;45.028;38.968;2022-07-29T03:30:19;28.20;;;12.18;;
49384;SDS011;36795;45.028;38.968;2022-07-29T03:33:06;31.92;;;13.25;;
49384;SDS011;36795;45.028;38.968;2022-07-29T03:35:52;27.90;;;12.48;;
49384;SDS011;36795;45.028;38.968;2022-07-29T03:38:38;28.10;;;13.95;;
49384;SDS011;36795;45.028;38.968;2022-07-29T03:41:27;30.73;;;13.25;;
49384;SDS011;36795;45.028;38.968;2022-07-29T03:44:16;29.30;;;13.45;;
49384;SDS011;36795;45.028;38.968;2022-07-29T03:47:06;28.17;;;13.65;;
49384;SDS011;36795;45.028;38.968;2022-07-29T03:49:54;35.75;;;16.45;;
49384;SDS011;36795;45.028;38.968;2022-07-29T03:52:45;32.90;;;16.20;;
49384;SDS011;36795;45.028;38.968;2022-07-29T03:55:33;43.72;;;21.05;;
49384;SDS011;36795;45.028;38.968;2022-07-29T03:58:27;36.90;;;21.30;;
49384;SDS011;36795;45.028;38.968;2022-07-29T04:01:16;33.13;;;19.62;;
49384;SDS011;36795;45.028;38.968;2022-07-29T04:04:03;37.80;;;20.50;;
49384;SDS011;36795;45.028;38.968;2022-07-29T04:06:49;40.95;;;24.17;;
49384;SDS011;36795;45.028;38.968;2022-07-29T04:09:35;39.35;;;22.95;;
49384;SDS011;36795;45.028;38.968;2022-07-29T04:12:21;39.78;;;25.42;;
49384;SDS011;36795;45.028;38.968;2022-07-29T04:15:07;39.10;;;23.38;;
49384;SDS011;36795;45.028;38.968;2022-07-29T04:17:54;39.15;;;22.62;;
49384;SDS011;36795;45.028;38.968;2022-07-29T04:20:40;38.28;;;21.73;;
49384;SDS011;36795;45.028;38.968;2022-07-29T04:23:27;33.45;;;20.58;;
49384;SDS011;36795;45.028;38.968;2022-07-29T04:26:18;33.75;;;19.42;;
49384;SDS011;36795;45.028;38.968;2022-07-29T04:29:05;33.90;;;18.60;;
49384;SDS011;36795;45.028;38.968;2022-07-29T04:31:51;32.80;;;18.35;;
49384;SDS011;36795;45.028;38.968;2022-07-29T04:34:37;33.25;;;17.85;;
49384;SDS011;36795;45.028;38.968;2022-07-29T04:37:24;32.80;;;17.65;;
49384;SDS011;36795;45.028;38.968;2022-07-29T04:40:10;34.67;;;17.75;;
49384;SDS011;36795;45.028;38.968;2022-07-29T04:42:58;30.12;;;17.35;;
49384;SDS011;36795;45.028;38.968;2022-07-29T04:45:45;32.78;;;16.58;;
49384;SDS011;36795;45.028;38.968;2022-07-29T04:48:32;33.75;;;17.33;;
49384;SDS011;36795;45.028;38.968;2022-07-29T04:51:18;34.88;;;16.45;;
49384;SDS011;36795;45.028;38.968;2022-07-29T04:54:04;27.60;;;15.80;;
49384;SDS011;36795;45.028;38.968;2022-07-29T04:56:51;31.45;;;16.33;;
49384;SDS011;36795;45.028;38.968;2022-07-29T04:59:37;30.40;;;15.82;;
49384;SDS011;36795;45.028;38.968;2022-07-29T05:02:23;30.23;;;14.13;;
49384;SDS011;36795;45.028;38.968;2022-07-29T05:05:10;36.03;;;15.52;;
49384;SDS011;36795;45.028;38.968;2022-07-29T05:07:56;34.05;;;14.57;;
49384;SDS011;36795;45.028;38.968;2022-07-29T05:10:42;35.63;;;15.30;;
49384;SDS011;36795;45.028;38.968;2022-07-29T05:13:29;28.40;;;14.07;;
49384;SDS011;36795;45.028;38.968;2022-07-29T05:16:15;32.25;;;14.32;;
49384;SDS011;36795;45.028;38.968;2022-07-29T05:19:01;30.88;;;13.60;;
49384;SDS011;36795;45.028;38.968;2022-07-29T05:21:47;30.48;;;13.48;;
49384;SDS011;36795;45.028;38.968;2022-07-29T05:24:33;27.90;;;13.27;;
49384;SDS011;36795;45.028;38.968;2022-07-29T05:27:20;31.10;;;14.15;;
49384;SDS011;36795;45.028;38.968;2022-07-29T05:30:06;29.12;;;14.18;;
49384;SDS011;36795;45.028;38.968;2022-07-29T05:32:53;28.20;;;9.60;;
49384;SDS011;36795;45.028;38.968;2022-07-29T05:35:39;24.95;;;8.75;;
49384;SDS011;36795;45.028;38.968;2022-07-29T05:38:27;22.80;;;8.07;;
49384;SDS011;36795;45.028;38.968;2022-07-29T05:41:15;23.20;;;8.27;;
49384;SDS011;36795;45.028;38.968;2022-07-29T05:44:01;24.55;;;8.82;;
49384;SDS011;36795;45.028;38.968;2022-07-29T05:46:47;24.15;;;8.80;;
49384;SDS011;36795;45.028;38.968;2022-07-29T05:49:33;26.05;;;8.70;;
49384;SDS011;36795;45.028;38.968;2022-07-29T05:52:20;22.42;;;7.70;;
49384;SDS011;36795;45.028;38.968;2022-07-29T05:55:06;24.77;;;8.23;;
49384;SDS011;36795;45.028;38.968;2022-07-29T05:57:53;22.70;;;7.93;;
49384;SDS011;36795;45.028;38.968;2022-07-29T06:00:43;22.08;;;7.95;;
49384;SDS011;36795;45.028;38.968;2022-07-29T06:03:30;29.75;;;12.73;;
49384;SDS011;36795;45.028;38.968;2022-07-29T06:06:16;24.42;;;7.70;;
49384;SDS011;36795;45.028;38.968;2022-07-29T06:09:03;25.12;;;7.43;;
49384;SDS011;36795;45.028;38.968;2022-07-29T06:11:49;23.05;;;7.40;;
49384;SDS011;36795;45.028;38.968;2022-07-29T06:14:36;23.30;;;8.07;;
49384;SDS011;36795;45.028;38.968;2022-07-29T06:17:23;27.20;;;8.10;;
49384;SDS011;36795;45.028;38.968;2022-07-29T06:20:09;26.20;;;7.30;;
49384;SDS011;36795;45.028;38.968;2022-07-29T06:22:55;26.05;;;7.65;;
49384;SDS011;36795;45.028;38.968;2022-07-29T06:25:42;25.55;;;7.62;;
49384;SDS011;36795;45.028;38.968;2022-07-29T06:28:28;24.02;;;7.03;;
49384;SDS011;36795;45.028;38.968;2022-07-29T06:31:14;22.00;;;7.75;;
49384;SDS011;36795;45.028;38.968;2022-07-29T06:34:00;26.98;;;8.00;;
49384;SDS011;36795;45.028;38.968;2022-07-29T06:36:47;24.95;;;8.35;;
49384;SDS011;36795;45.028;38.968;2022-07-29T06:39:35;26.27;;;7.72;;
49384;SDS011;36795;45.028;38.968;2022-07-29T06:42:22;25.20;;;7.87;;
49384;SDS011;36795;45.028;38.968;2022-07-29T06:45:07;23.02;;;7.53;;
49384;SDS011;36795;45.028;38.968;2022-07-29T06:47:54;29.83;;;7.32;;
49384;SDS011;36795;45.028;38.968;2022-07-29T06:50:40;20.30;;;6.95;;
49384;SDS011;36795;45.028;38.968;2022-07-29T06:53:27;23.98;;;7.03;;
49384;SDS011;36795;45.028;38.968;2022-07-29T06:56:13;23.87;;;7.60;;
49384;SDS011;36795;45.028;38.968;2022-07-29T06:58:59;22.83;;;7.37;;
49384;SDS011;36795;45.028;38.968;2022-07-29T07:01:45;19.87;;;6.87;;
49384;SDS011;36795;45.028;38.968;2022-07-29T07:04:31;20.70;;;6.35;;
49384;SDS011;36795;45.028;38.968;2022-07-29T07:07:18;16.92;;;5.68;;
49384;SDS011;36795;45.028;38.968;2022-07-29T07:10:04;25.10;;;8.30;;
49384;SDS011;36795;45.028;38.968;2022-07-29T07:12:51;23.20;;;7.18;;
49384;SDS011;36795;45.028;38.968;2022-07-29T07:15:38;19.85;;;6.45;;
49384;SDS011;36795;45.028;38.968;2022-07-29T07:18:28;21.37;;;6.75;;
49384;SDS011;36795;45.028;38.968;2022-07-29T07:21:14;22.90;;;7.28;;
49384;SDS011;36795;45.028;38.968;2022-07-29T07:24:03;22.92;;;6.50;;
49384;SDS011;36795;45.028;38.968;2022-07-29T07:26:50;25.65;;;7.10;;
49384;SDS011;36795;45.028;38.968;2022-07-29T07:29:36;20.83;;;6.95;;
49384;SDS011;36795;45.028;38.968;2022-07-29T07:32:26;23.50;;;7.40;;
49384;SDS011;36795;45.028;38.968;2022-07-29T07:35:14;19.60;;;6.18;;
49384;SDS011;36795;45.028;38.968;2022-07-29T07:38:03;18.37;;;6.22;;
49384;SDS011;36795;45.028;38.968;2022-07-29T07:40:51;19.42;;;5.90;;
49384;SDS011;36795;45.028;38.968;2022-07-29T07:43:38;18.52;;;5.40;;
49384;SDS011;36795;45.028;38.968;2022-07-29T07:46:27;20.65;;;6.47;;
49384;SDS011;36795;45.028;38.968;2022-07-29T07:49:13;19.67;;;5.93;;
49384;SDS011;36795;45.028;38.968;2022-07-29T07:51:59;20.08;;;6.57;;
49384;SDS011;36795;45.028;38.968;2022-07-29T07:54:46;18.60;;;5.82;;
49384;SDS011;36795;45.028;38.968;2022-07-29T07:57:32;18.90;;;5.45;;
49384;SDS011;36795;45.028;38.968;2022-07-29T08:00:18;19.73;;;5.28;;
49384;SDS011;36795;45.028;38.968;2022-07-29T08:03:06;15.73;;;5.37;;
49384;SDS011;36795;45.028;38.968;2022-07-29T08:05:57;17.85;;;5.18;;
49384;SDS011;36795;45.028;38.968;2022-07-29T08:08:44;19.65;;;5.37;;
49384;SDS011;36795;45.028;38.968;2022-07-29T08:11:30;30.58;;;9.77;;
49384;SDS011;36795;45.028;38.968;2022-07-29T08:14:19;27.20;;;11.32;;
49384;SDS011;36795;45.028;38.968;2022-07-29T08:17:06;17.55;;;5.30;;
49384;SDS011;36795;45.028;38.968;2022-07-29T08:19:52;21.12;;;5.35;;
49384;SDS011;36795;45.028;38.968;2022-07-29T08:22:38;16.62;;;5.50;;
49384;SDS011;36795;45.028;38.968;2022-07-29T08:25:26;19.45;;;5.60;;
49384;SDS011;36795;45.028;38.968;2022-07-29T08:28:12;17.33;;;5.70;;
49384;SDS011;36795;45.028;38.968;2022-07-29T08:30:58;18.85;;;5.65;;
49384;SDS011;36795;45.028;38.968;2022-07-29T08:33:44;43.42;;;30.17;;
49384;SDS011;36795;45.028;38.968;2022-07-29T08:36:31;20.23;;;5.62;;
49384;SDS011;36795;45.028;38.968;2022-07-29T08:39:18;23.62;;;6.18;;
49384;SDS011;36795;45.028;38.968;2022-07-29T08:42:04;23.10;;;6.93;;
49384;SDS011;36795;45.028;38.968;2022-07-29T08:44:50;26.87;;;7.12;;
49384;SDS011;36795;45.028;38.968;2022-07-29T08:47:39;20.00;;;6.68;;
49384;SDS011;36795;45.028;38.968;2022-07-29T08:50:25;20.77;;;6.35;;
49384;SDS011;36795;45.028;38.968;2022-07-29T08:53:12;21.40;;;6.10;;
49384;SDS011;36795;45.028;38.968;2022-07-29T08:56:00;21.85;;;6.10;;
49384;SDS011;36795;45.028;38.968;2022-07-29T08:58:48;22.00;;;5.82;;
49384;SDS011;36795;45.028;38.968;2022-07-29T09:01:35;21.00;;;6.78;;
49384;SDS011;36795;45.028;38.968;2022-07-29T09:04:27;22.15;;;6.35;;
49384;SDS011;36795;45.028;38.968;2022-07-29T09:07:18;20.17;;;5.78;;
49384;SDS011;36795;45.028;38.968;2022-07-29T09:10:04;20.05;;;9.30;;
49384;SDS011;36795;45.028;38.968;2022-07-29T09:12:51;22.77;;;6.43;;
49384;SDS011;36795;45.028;38.968;2022-07-29T09:15:39;21.48;;;7.87;;
49384;SDS011;36795;45.028;38.968;2022-07-29T09:18:36;22.37;;;6.70;;
49384;SDS011;36795;45.028;38.968;2022-07-29T09:21:24;20.65;;;7.47;;
49384;SDS011;36795;45.028;38.968;2022-07-29T09:27:33;18.77;;;6.05;;
49384;SDS011;36795;45.028;38.968;2022-07-29T09:30:19;21.50;;;5.60;;
49384;SDS011;36795;45.028;38.968;2022-07-29T09:33:07;18.00;;;6.90;;
49384;SDS011;36795;45.028;38.968;2022-07-29T09:36:03;19.23;;;6.80;;
49384;SDS011;36795;45.028;38.968;2022-07-29T09:38:58;21.05;;;6.30;;
49384;SDS011;36795;45.028;38.968;2022-07-29T09:41:49;16.87;;;6.37;;
49384;SDS011;36795;45.028;38.968;2022-07-29T09:44:49;18.23;;;5.60;;
49384;SDS011;36795;45.028;38.968;2022-07-29T09:47:54;22.87;;;5.55;;
49384;SDS011;36795;45.028;38.968;2022-07-29T09:50:43;20.42;;;7.47;;
49384;SDS011;36795;45.028;38.968;2022-07-29T09:53:31;23.20;;;9.38;;
49384;SDS011;36795;45.028;38.968;2022-07-29T09:56:20;18.33;;;5.45;;
49384;SDS011;36795;45.028;38.968;2022-07-29T09:59:29;17.17;;;5.47;;
49384;SDS011;36795;45.028;38.968;2022-07-29T10:02:15;18.42;;;5.97;;
49384;SDS011;36795;45.028;38.968;2022-07-29T10:05:04;20.55;;;5.25;;
49384;SDS011;36795;45.028;38.968;2022-07-29T10:08:00;17.17;;;5.20;;
49384;SDS011;36795;45.028;38.968;2022-07-29T10:10:47;16.48;;;5.30;;
49384;SDS011;36795;45.028;38.968;2022-07-29T10:13:33;18.20;;;5.87;;
49384;SDS011;36795;45.028;38.968;2022-07-29T10:16:19;20.48;;;5.45;;
49384;SDS011;36795;45.028;38.968;2022-07-29T10:19:05;22.05;;;6.10;;
49384;SDS011;36795;45.028;38.968;2022-07-29T10:21:52;16.50;;;5.43;;
49384;SDS011;36795;45.028;38.968;2022-07-29T10:24:38;17.83;;;5.30;;
49384;SDS011;36795;45.028;38.968;2022-07-29T10:27:25;16.50;;;5.10;;
49384;SDS011;36795;45.028;38.968;2022-07-29T10:30:12;13.48;;;5.12;;
49384;SDS011;36795;45.028;38.968;2022-07-29T10:42:29;19.08;;;5.47;;
49384;SDS011;36795;45.028;38.968;2022-07-29T10:45:16;19.50;;;6.45;;
49384;SDS011;36795;45.028;38.968;2022-07-29T10:48:03;15.18;;;5.20;;
49384;SDS011;36795;45.028;38.968;2022-07-29T10:50:54;21.58;;;6.03;;
49384;SDS011;36795;45.028;38.968;2022-07-29T10:53:53;16.15;;;5.47;;
49384;SDS011;36795;45.028;38.968;2022-07-29T10:56:39;16.73;;;5.80;;
49384;SDS011;36795;45.028;38.968;2022-07-29T10:59:26;18.15;;;5.35;;
49384;SDS011;36795;45.028;38.968;2022-07-29T11:05:19;16.48;;;5.10;;
49384;SDS011;36795;45.028;38.968;2022-07-29T11:14:03;16.85;;;4.87;;
49384;SDS011;36795;45.028;38.968;2022-07-29T11:16:59;15.73;;;5.03;;
49384;SDS011;36795;45.028;38.968;2022-07-29T11:19:47;19.33;;;5.45;;
49384;SDS011;36795;45.028;38.968;2022-07-29T11:22:33;17.00;;;5.10;;
49384;SDS011;36795;45.028;38.968;2022-07-29T11:25:21;22.25;;;5.90;;
49384;SDS011;36795;45.028;38.968;2022-07-29T11:28:13;16.85;;;5.25;;
49384;SDS011;36795;45.028;38.968;2022-07-29T11:31:04;17.60;;;5.30;;
49384;SDS011;36795;45.028;38.968;2022-07-29T11:33:52;21.23;;;7.18;;
49384;SDS011;36795;45.028;38.968;2022-07-29T11:36:58;16.45;;;5.43;;
49384;SDS011;36795;45.028;38.968;2022-07-29T11:43:08;18.92;;;5.37;;
49384;SDS011;36795;45.028;38.968;2022-07-29T11:45:55;15.35;;;5.15;;
49384;SDS011;36795;45.028;38.968;2022-07-29T11:48:45;22.37;;;6.12;;
49384;SDS011;36795;45.028;38.968;2022-07-29T11:51:31;15.65;;;5.12;;
49384;SDS011;36795;45.028;38.968;2022-07-29T11:54:23;30.88;;;23.20;;
49384;SDS011;36795;45.028;38.968;2022-07-29T11:57:19;16.00;;;5.90;;
49384;SDS011;36795;45.028;38.968;2022-07-29T12:00:07;16.40;;;5.35;;
49384;SDS011;36795;45.028;38.968;2022-07-29T12:02:59;19.73;;;6.20;;
49384;SDS011;36795;45.028;38.968;2022-07-29T12:05:50;20.30;;;5.45;;
49384;SDS011;36795;45.028;38.968;2022-07-29T12:08:39;17.60;;;5.70;;
49384;SDS011;36795;45.028;38.968;2022-07-29T12:11:28;17.60;;;5.28;;
49384;SDS011;36795;45.028;38.968;2022-07-29T12:14:33;17.12;;;5.82;;
49384;SDS011;36795;45.028;38.968;2022-07-29T12:17:30;18.08;;;5.18;;
49384;SDS011;36795;45.028;38.968;2022-07-29T12:20:22;18.05;;;6.53;;
49384;SDS011;36795;45.028;38.968;2022-07-29T12:23:14;17.55;;;5.20;;
49384;SDS011;36795;45.028;38.968;2022-07-29T12:26:05;16.33;;;5.43;;
49384;SDS011;36795;45.028;38.968;2022-07-29T12:28:52;17.55;;;5.10;;
49384;SDS011;36795;45.028;38.968;2022-07-29T12:31:39;16.35;;;5.37;;
49384;SDS011;36795;45.028;38.968;2022-07-29T12:34:26;15.48;;;5.00;;
49384;SDS011;36795;45.028;38.968;2022-07-29T12:37:14;15.88;;;4.93;;
49384;SDS011;36795;45.028;38.968;2022-07-29T12:40:01;17.25;;;5.47;;
49384;SDS011;36795;45.028;38.968;2022-07-29T12:45:55;17.80;;;5.25;;
49384;SDS011;36795;45.028;38.968;2022-07-29T12:48:42;18.33;;;6.07;;
49384;SDS011;36795;45.028;38.968;2022-07-29T12:51:31;16.65;;;5.28;;
49384;SDS011;36795;45.028;38.968;2022-07-29T12:54:23;19.50;;;5.50;;
49384;SDS011;36795;45.028;38.968;2022-07-29T12:57:09;13.43;;;4.87;;
49384;SDS011;36795;45.028;38.968;2022-07-29T12:59:59;18.80;;;5.57;;
49384;SDS011;36795;45.028;38.968;2022-07-29T13:02:58;19.40;;;5.60;;
49384;SDS011;36795;45.028;38.968;2022-07-29T13:05:47;17.77;;;5.50;;
49384;SDS011;36795;45.028;38.968;2022-07-29T13:08:35;17.30;;;4.80;;
49384;SDS011;36795;45.028;38.968;2022-07-29T13:11:31;14.02;;;4.70;;
49384;SDS011;36795;45.028;38.968;2022-07-29T13:17:21;16.42;;;5.12;;
49384;SDS011;36795;45.028;38.968;2022-07-29T13:20:12;14.10;;;5.07;;
49384;SDS011;36795;45.028;38.968;2022-07-29T13:22:59;18.85;;;4.95;;
49384;SDS011;36795;45.028;38.968;2022-07-29T13:25:46;16.33;;;4.62;;
49384;SDS011;36795;45.028;38.968;2022-07-29T13:28:33;17.87;;;4.80;;
49384;SDS011;36795;45.028;38.968;2022-07-29T13:31:24;14.25;;;4.85;;
49384;SDS011;36795;45.028;38.968;2022-07-29T13:34:14;12.68;;;4.65;;
49384;SDS011;36795;45.028;38.968;2022-07-29T13:37:01;11.95;;;4.47;;
49384;SDS011;36795;45.028;38.968;2022-07-29T13:39:47;16.62;;;4.90;;
49384;SDS011;36795;45.028;38.968;2022-07-29T13:42:33;18.25;;;5.45;;
49384;SDS011;36795;45.028;38.968;2022-07-29T13:45:19;12.43;;;4.60;;
49384;SDS011;36795;45.028;38.968;2022-07-29T13:48:06;13.02;;;4.05;;
49384;SDS011;36795;45.028;38.968;2022-07-29T13:50:52;14.35;;;4.75;;
49384;SDS011;36795;45.028;38.968;2022-07-29T13:53:38;18.10;;;4.70;;
49384;SDS011;36795;45.028;38.968;2022-07-29T13:56:26;17.25;;;5.30;;
49384;SDS011;36795;45.028;38.968;2022-07-29T13:59:14;14.02;;;4.80;;
49384;SDS011;36795;45.028;38.968;2022-07-29T14:02:00;16.23;;;4.87;;
49384;SDS011;36795;45.028;38.968;2022-07-29T14:04:47;15.25;;;4.60;;
49384;SDS011;36795;45.028;38.968;2022-07-29T14:07:32;15.02;;;4.28;;
49384;SDS011;36795;45.028;38.968;2022-07-29T14:10:22;17.42;;;4.93;;
49384;SDS011;36795;45.028;38.968;2022-07-29T14:13:08;21.45;;;4.53;;
49384;SDS011;36795;45.028;38.968;2022-07-29T14:15:54;16.83;;;4.97;;
49384;SDS011;36795;45.028;38.968;2022-07-29T14:18:40;16.75;;;4.80;;
49384;SDS011;36795;45.028;38.968;2022-07-29T14:21:27;18.77;;;5.00;;
49384;SDS011;36795;45.028;38.968;2022-07-29T14:24:13;19.50;;;5.60;;
49384;SDS011;36795;45.028;38.968;2022-07-29T14:26:59;18.90;;;5.12;;
49384;SDS011;36795;45.028;38.968;2022-07-29T14:29:46;14.25;;;5.03;;
49384;SDS011;36795;45.028;38.968;2022-07-29T14:32:32;23.33;;;4.65;;
49384;SDS011;36795;45.028;38.968;2022-07-29T14:35:18;17.73;;;4.55;;
49384;SDS011;36795;45.028;38.968;2022-07-29T14:38:04;13.88;;;4.62;;
49384;SDS011;36795;45.028;38.968;2022-07-29T14:40:50;17.05;;;5.55;;
49384;SDS011;36795;45.028;38.968;2022-07-29T14:43:37;18.95;;;4.82;;
49384;SDS011;36795;45.028;38.968;2022-07-29T14:46:23;19.85;;;4.22;;
49384;SDS011;36795;45.028;38.968;2022-07-29T14:49:10;18.25;;;4.35;;
49384;SDS011;36795;45.028;38.968;2022-07-29T14:51:56;16.48;;;4.75;;
49384;SDS011;36795;45.028;38.968;2022-07-29T14:54:42;18.23;;;4.70;;
49384;SDS011;36795;45.028;38.968;2022-07-29T14:57:28;15.60;;;4.80;;
49384;SDS011;36795;45.028;38.968;2022-07-29T15:00:15;15.68;;;4.45;;
49384;SDS011;36795;45.028;38.968;2022-07-29T15:03:01;15.30;;;4.35;;
49384;SDS011;36795;45.028;38.968;2022-07-29T15:05:48;19.98;;;5.50;;
49384;SDS011;36795;45.028;38.968;2022-07-29T15:08:34;18.35;;;5.15;;
49384;SDS011;36795;45.028;38.968;2022-07-29T15:11:20;22.80;;;5.40;;
49384;SDS011;36795;45.028;38.968;2022-07-29T15:14:06;18.00;;;4.62;;
49384;SDS011;36795;45.028;38.968;2022-07-29T15:16:53;15.50;;;4.30;;
49384;SDS011;36795;45.028;38.968;2022-07-29T15:19:39;20.55;;;6.57;;
49384;SDS011;36795;45.028;38.968;2022-07-29T15:22:26;16.08;;;4.60;;
49384;SDS011;36795;45.028;38.968;2022-07-29T15:25:12;12.02;;;4.25;;
49384;SDS011;36795;45.028;38.968;2022-07-29T15:27:58;15.05;;;4.50;;
49384;SDS011;36795;45.028;38.968;2022-07-29T15:30:47;15.18;;;4.60;;
49384;SDS011;36795;45.028;38.968;2022-07-29T15:33:34;13.70;;;4.40;;
49384;SDS011;36795;45.028;38.968;2022-07-29T15:36:20;19.98;;;5.53;;
49384;SDS011;36795;45.028;38.968;2022-07-29T15:39:07;14.77;;;4.65;;
49384;SDS011;36795;45.028;38.968;2022-07-29T15:41:54;31.55;;;6.30;;
49384;SDS011;36795;45.028;38.968;2022-07-29T15:44:40;22.95;;;5.18;;
49384;SDS011;36795;45.028;38.968;2022-07-29T15:47:27;18.75;;;6.03;;
49384;SDS011;36795;45.028;38.968;2022-07-29T15:50:13;27.83;;;6.20;;
49384;SDS011;36795;45.028;38.968;2022-07-29T15:53:00;20.55;;;5.60;;
49384;SDS011;36795;45.028;38.968;2022-07-29T15:55:47;19.52;;;5.35;;
49384;SDS011;36795;45.028;38.968;2022-07-29T15:58:33;17.52;;;5.22;;
49384;SDS011;36795;45.028;38.968;2022-07-29T16:01:24;21.98;;;5.43;;
49384;SDS011;36795;45.028;38.968;2022-07-29T16:04:17;20.10;;;5.57;;
49384;SDS011;36795;45.028;38.968;2022-07-29T16:07:03;21.40;;;5.50;;
49384;SDS011;36795;45.028;38.968;2022-07-29T16:09:50;19.80;;;5.75;;
49384;SDS011;36795;45.028;38.968;2022-07-29T16:12:36;19.42;;;5.60;;
49384;SDS011;36795;45.028;38.968;2022-07-29T16:15:23;21.87;;;6.07;;
49384;SDS011;36795;45.028;38.968;2022-07-29T16:18:09;18.27;;;5.70;;
49384;SDS011;36795;45.028;38.968;2022-07-29T16:20:55;20.52;;;5.62;;
49384;SDS011;36795;45.028;38.968;2022-07-29T16:23:41;20.33;;;6.53;;
49384;SDS011;36795;45.028;38.968;2022-07-29T16:26:27;19.92;;;7.30;;
49384;SDS011;36795;45.028;38.968;2022-07-29T16:29:13;24.65;;;7.72;;
49384;SDS011;36795;45.028;38.968;2022-07-29T16:32:00;25.73;;;9.25;;
49384;SDS011;36795;45.028;38.968;2022-07-29T16:34:46;23.38;;;6.95;;
49384;SDS011;36795;45.028;38.968;2022-07-29T16:40:09;17.27;;;5.72;;
49384;SDS011;36795;45.028;38.968;2022-07-29T16:42:56;18.75;;;6.75;;
49384;SDS011;36795;45.028;38.968;2022-07-29T16:45:42;21.75;;;5.85;;
49384;SDS011;36795;45.028;38.968;2022-07-29T16:48:29;22.00;;;6.10;;
49384;SDS011;36795;45.028;38.968;2022-07-29T16:51:14;19.52;;;6.40;;
49384;SDS011;36795;45.028;38.968;2022-07-29T16:54:01;22.10;;;6.00;;
49384;SDS011;36795;45.028;38.968;2022-07-29T16:56:47;25.58;;;8.10;;